Aviation Digital Data Service (ADDS)

Output produced by METARs form (0116 UTC 19 November 2017)
found at http://aviationweather.gov/adds/metars/
 
KLFK 182320Z 1900/1924 32013G24KT P6SM SKC 
     FM190400 35008G16KT P6SM SCT280 
     FM190800 36007KT P6SM SKC 
     FM191100 36004KT P6SM SKC 
     FM191500 03010G16KT P6SM SKC 
     FM192100 36007KT P6SM SKC